This is the latest recevied weather packets stored in our database for station/object R2BLN-13. If no packets are shown the sender has not sent any weather packets the latest 10 day(s).
| Time | Temp. | Humidity | Pressure | Rain* | Wind** | Luminosity | Snow |
|---|---|---|---|---|---|---|---|
| 1787898378 | 42.78° C | 25% | 1002.9 hPa | - | - | - | - |
| 1787897769 | 37.22° C | 35% | 1003.1 hPa | - | - | - | - |
| 1787897168 | 28.89° C | 50% | 1003.4 hPa | - | - | - | - |
| 1787896549 | 18.33° C | 67% | 1003.6 hPa | - | - | - | - |
| 1787895948 | 16.67° C | 72% | 1003.6 hPa | - | - | - | - |
| 1787895348 | 16.11° C | 74% | 1003.7 hPa | - | - | - | - |
| 1787894748 | 15° C | 75% | 1003.7 hPa | - | - | - | - |
| 1787894148 | 14.44° C | 75% | 1003.8 hPa | - | - | - | - |
| 1787893548 | 13.89° C | 76% | 1003.8 hPa | - | - | - | - |
| 1787892948 | 13.89° C | 76% | 1003.8 hPa | - | - | - | - |
| 1787892348 | 13.33° C | 76% | 1003.7 hPa | - | - | - | - |
| 1787891748 | 12.78° C | 76% | 1003.8 hPa | - | - | - | - |
| 1787891148 | 12.22° C | 76% | 1003.8 hPa | - | - | - | - |
| 1787890548 | 12.22° C | 76% | 1003.8 hPa | - | - | - | - |
| 1787889948 | 11.67° C | 77% | 1003.7 hPa | - | - | - | - |
| 1787889339 | 11.67° C | 77% | 1003.6 hPa | - | - | - | - |
| 1787888738 | 11.11° C | 77% | 1003.5 hPa | - | - | - | - |
| 1787888118 | 11.11° C | 76% | 1003.5 hPa | - | - | - | - |
| 1787887518 | 11.11° C | 76% | 1003.4 hPa | - | - | - | - |
| 1787886918 | 10.56° C | 76% | 1003.4 hPa | - | - | - | - |
| 1787886318 | 10.56° C | 77% | 1003.4 hPa | - | - | - | - |
| 1787885718 | 10.56° C | 77% | 1003.4 hPa | - | - | - | - |
| 1787885118 | 10.56° C | 77% | 1003.3 hPa | - | - | - | - |
| 1787884518 | 10.56° C | 76% | 1003.4 hPa | - | - | - | - |
| 1787883918 | 10.56° C | 77% | 1003.3 hPa | - | - | - | - |
* Rain since midnight (hover to see other rain measurements)
** Current wind speed in m/s (hover to see current wind gust speed)